Time;durP1;ratioP1;P1;durP2;ratioP2;P2;SDS_P1;SDS_P2;PMS_P1;PMS_P2;Temp;Humidity;BMP_temperature;BMP_pressure;BME280_temperature;BME280_humidity;BME280_pressure;Samples;Min_cycle;Max_cycle;Signal;HPM_P1;HPM_P2
2023/05/11 00:01:31;;;;;;;6.75;3.75;;;;;;;-142.57;100.00;115900.28;5029190;28;20053;-84
2023/05/11 00:03:57;;;;;;;4.65;3.38;;;;;;;-142.57;100.00;115900.28;5014924;28;20070;-83
2023/05/11 00:06:23;;;;;;;6.95;3.97;;;;;;;-142.57;100.00;115900.28;5011713;28;20133;-84
2023/05/11 00:08:54;;;;;;;6.07;4.03;;;;;;;-142.57;100.00;115900.28;5018504;28;20030;-83
2023/05/11 00:11:20;;;;;;;9.95;4.38;;;;;;;-142.57;100.00;115900.28;5000332;28;20557;-85
2023/05/11 00:13:45;;;;;;;7.60;3.95;;;;;;;-142.57;100.00;115900.28;5000666;28;20030;-84
2023/05/11 00:16:11;;;;;;;7.97;3.97;;;;;;;-142.57;100.00;115900.28;5002505;28;20118;-84
2023/05/11 00:18:36;;;;;;;5.75;3.40;;;;;;;-142.57;100.00;115900.28;5001059;28;20116;-83
2023/05/11 00:21:02;;;;;;;5.47;3.90;;;;;;;-142.57;100.00;115900.28;5000094;28;20043;-84
2023/05/11 00:23:27;;;;;;;9.30;3.83;;;;;;;-142.57;100.00;115900.28;5000119;28;20049;-84
2023/05/11 00:25:53;;;;;;;8.10;3.75;;;;;;;-142.57;100.00;115900.28;5000838;28;20042;-85
2023/05/11 00:28:18;;;;;;;6.97;3.63;;;;;;;-142.57;100.00;115900.28;4999246;28;20115;-84
2023/05/11 00:30:44;;;;;;;6.93;3.67;;;;;;;-142.57;100.00;115900.28;4997362;28;20050;-82
2023/05/11 00:33:10;;;;;;;9.23;3.40;;;;;;;-142.57;100.00;115900.28;4999929;28;20038;-85
2023/05/11 00:35:36;;;;;;;6.00;3.72;;;;;;;-142.57;100.00;115900.28;5000506;28;20099;-83
2023/05/11 00:38:02;;;;;;;5.80;3.58;;;;;;;-142.57;100.00;115900.28;4999641;28;20031;-83
2023/05/11 00:40:29;;;;;;;10.30;4.03;;;;;;;-142.57;100.00;115900.28;4996405;28;20038;-85
2023/05/11 00:42:55;;;;;;;11.57;3.53;;;;;;;-142.57;100.00;115900.28;5011612;28;20491;-84
2023/05/11 00:45:20;;;;;;;6.18;3.20;;;;;;;-142.57;100.00;115900.28;4995430;28;20130;-83
2023/05/11 00:47:46;;;;;;;5.55;3.50;;;;;;;-142.57;100.00;115900.28;5010075;28;20045;-84
2023/05/11 00:50:12;;;;;;;7.70;3.42;;;;;;;-142.57;100.00;115900.28;4995509;28;20051;-83
2023/05/11 00:52:38;;;;;;;6.97;3.33;;;;;;;-142.57;100.00;115900.28;5011545;28;20041;-84
2023/05/11 00:55:04;;;;;;;12.70;3.42;;;;;;;-142.57;100.00;115900.28;4996010;28;20518;-84
2023/05/11 00:57:32;;;;;;;5.35;3.28;;;;;;;-142.57;100.00;115900.28;4996451;28;20118;-84
2023/05/11 01:00:00;;;;;;;6.97;3.78;;;;;;;-142.57;100.00;115900.28;4996712;28;20034;-84
2023/05/11 01:02:26;;;;;;;8.32;3.20;;;;;;;-142.57;100.00;115900.28;4996806;28;20038;-84
2023/05/11 01:04:51;;;;;;;14.10;3.60;;;;;;;-142.57;100.00;115900.28;4995807;28;20046;-84
2023/05/11 01:07:58;;;;;;;6.55;3.45;;;;;;;-142.57;100.00;115900.28;4994630;28;20034;-84
2023/05/11 01:10:37;;;;;;;10.38;4.32;;;;;;;-142.57;100.00;115900.28;4994435;28;20041;-84
2023/05/11 01:13:21;;;;;;;5.78;3.60;;;;;;;-142.57;100.00;115900.28;4994049;28;20037;-85
2023/05/11 01:15:51;;;;;;;9.60;3.47;;;;;;;-142.57;100.00;115900.28;4994634;28;20042;-83
2023/05/11 01:18:30;;;;;;;6.75;3.63;;;;;;;-142.57;100.00;115900.28;4994521;28;20030;-83
2023/05/11 01:21:00;;;;;;;5.93;3.22;;;;;;;-142.57;100.00;115900.28;5011315;28;20542;-84
2023/05/11 01:24:04;;;;;;;5.18;3.28;;;;;;;-142.57;100.00;115900.28;5028169;28;20031;-83
2023/05/11 01:27:02;;;;;;;14.10;3.85;;;;;;;-142.57;100.00;115900.28;5017985;28;20030;-84
2023/05/11 01:29:46;;;;;;;6.25;3.40;;;;;;;-142.57;100.00;115900.28;5018426;28;20069;-84
2023/05/11 01:32:24;;;;;;;6.13;3.53;;;;;;;-142.57;100.00;115900.28;4996335;28;20512;-86
2023/05/11 01:35:05;;;;;;;11.40;4.13;;;;;;;-142.57;100.00;115900.28;5011002;28;20627;-84
2023/05/11 01:37:32;;;;;;;6.45;3.70;;;;;;;-142.57;100.00;115900.28;5010560;28;20042;-84
2023/05/11 01:40:02;;;;;;;7.45;3.83;;;;;;;-142.57;100.00;115900.28;5010568;28;20100;-84
2023/05/11 01:42:35;;;;;;;9.57;3.60;;;;;;;-142.57;100.00;115900.28;4994243;28;20038;-83
2023/05/11 01:45:03;;;;;;;9.73;3.80;;;;;;;-142.57;100.00;115900.28;4995678;28;20034;-83
2023/05/11 01:47:31;;;;;;;6.97;3.33;;;;;;;-142.57;100.00;115900.28;5010390;28;20022;-82
2023/05/11 01:49:57;;;;;;;9.25;3.55;;;;;;;-142.57;100.00;115900.28;4994673;28;20034;-86
2023/05/11 01:52:26;;;;;;;6.28;3.42;;;;;;;-142.57;100.00;115900.28;4995402;28;20038;-83
2023/05/11 01:54:54;;;;;;;8.20;3.97;;;;;;;-142.57;100.00;115900.28;4995462;28;20038;-83
2023/05/11 01:57:20;;;;;;;11.35;3.92;;;;;;;-142.57;100.00;115900.28;5010313;28;20574;-83
2023/05/11 01:59:48;;;;;;;8.43;3.85;;;;;;;-142.57;100.00;115900.28;4993508;28;20034;-84
2023/05/11 02:02:15;;;;;;;7.47;3.25;;;;;;;-142.57;100.00;115900.28;5011254;28;20034;-85
2023/05/11 02:04:42;;;;;;;10.98;3.70;;;;;;;-142.57;100.00;115900.28;5010495;28;20050;-84
2023/05/11 02:07:10;;;;;;;7.47;3.00;;;;;;;-142.57;100.00;115900.28;4978195;28;20535;-82
2023/05/11 02:09:37;;;;;;;9.32;3.40;;;;;;;-142.57;100.00;115900.28;4995674;28;20467;-83
2023/05/11 02:12:05;;;;;;;8.75;3.30;;;;;;;-142.57;100.00;115900.28;5010687;28;20113;-85
2023/05/11 02:14:35;;;;;;;4.65;3.30;;;;;;;-142.57;100.00;115900.28;4994265;28;20566;-82
2023/05/11 02:17:02;;;;;;;7.15;3.42;;;;;;;-142.57;100.00;115900.28;4998036;28;20038;-81
2023/05/11 02:19:30;;;;;;;5.78;3.13;;;;;;;-142.57;100.00;115900.28;5005229;28;20056;-82
2023/05/11 02:21:58;;;;;;;7.38;3.10;;;;;;;-142.57;100.00;115900.28;4997248;28;20030;-82
2023/05/11 02:24:27;;;;;;;5.22;2.85;;;;;;;-142.57;100.00;115900.28;5013239;28;20066;-83
2023/05/11 02:26:53;;;;;;;6.45;3.30;;;;;;;-142.57;100.00;115900.28;5010881;28;20034;-81
2023/05/11 02:29:19;;;;;;;7.03;3.45;;;;;;;-142.57;100.00;115900.28;5010118;28;20418;-84
2023/05/11 02:31:47;;;;;;;11.55;4.00;;;;;;;-142.57;100.00;115900.28;5010443;28;20026;-85
2023/05/11 02:34:23;;;;;;;6.25;3.30;;;;;;;-142.57;100.00;115900.28;5010066;28;20038;-83
2023/05/11 02:36:53;;;;;;;11.98;3.65;;;;;;;-142.57;100.00;115900.28;5009927;28;20129;-82
2023/05/11 02:39:21;;;;;;;7.35;3.53;;;;;;;-142.57;100.00;115900.28;4993948;28;20035;-82
2023/05/11 02:41:55;;;;;;;7.80;3.72;;;;;;;-142.57;100.00;115900.28;5009581;28;20042;-82
2023/05/11 02:44:23;;;;;;;6.70;4.07;;;;;;;-142.57;100.00;115900.28;5008804;28;20403;-81
2023/05/11 02:46:53;;;;;;;6.72;3.80;;;;;;;-142.57;100.00;115900.28;4993622;28;20035;-84
2023/05/11 02:49:22;;;;;;;7.00;3.83;;;;;;;-142.57;100.00;115900.28;4994698;28;20502;-86
2023/05/11 02:51:50;;;;;;;8.52;3.97;;;;;;;-142.57;100.00;115900.28;4994011;28;20438;-83
2023/05/11 02:54:17;;;;;;;7.18;3.97;;;;;;;-142.57;100.00;115900.28;5010469;28;20349;-83
2023/05/11 02:56:48;;;;;;;9.15;4.03;;;;;;;-142.57;100.00;115900.28;5010407;28;20476;-86
2023/05/11 02:59:14;;;;;;;7.35;4.03;;;;;;;-142.57;100.00;115900.28;5010515;28;20483;-82
2023/05/11 03:01:40;;;;;;;6.60;4.20;;;;;;;-142.57;100.00;115900.28;4996620;28;20412;-83
2023/05/11 03:04:06;;;;;;;7.38;3.85;;;;;;;-142.57;100.00;115900.28;5011095;28;20555;-83
2023/05/11 03:06:32;;;;;;;6.35;4.00;;;;;;;-142.57;100.00;115900.28;5010361;28;20052;-84
2023/05/11 03:09:00;;;;;;;8.85;3.67;;;;;;;-142.57;100.00;115900.28;4994165;28;20034;-82
2023/05/11 03:11:26;;;;;;;10.52;3.50;;;;;;;-142.57;100.00;115900.28;5036726;28;20044;-81
2023/05/11 03:13:52;;;;;;;3.70;2.97;;;;;;;-142.57;100.00;115900.28;5036074;28;20077;-83
2023/05/11 03:16:19;;;;;;;8.57;3.25;;;;;;;-142.57;100.00;115900.28;5020944;28;20030;-82
2023/05/11 03:18:47;;;;;;;6.75;3.03;;;;;;;-142.57;100.00;115900.28;5022251;28;20038;-83
2023/05/11 03:21:17;;;;;;;7.03;3.15;;;;;;;-142.57;100.00;115900.28;5019476;28;20038;-85
2023/05/11 03:23:44;;;;;;;6.88;2.85;;;;;;;-142.57;100.00;115900.28;5038353;28;20038;-84
2023/05/11 03:26:11;;;;;;;6.60;3.20;;;;;;;-142.57;100.00;115900.28;5022934;28;20343;-82
2023/05/11 03:28:40;;;;;;;5.28;3.10;;;;;;;-142.57;100.00;115900.28;5024814;28;20038;-84
2023/05/11 03:31:07;;;;;;;7.03;3.38;;;;;;;-142.57;100.00;115900.28;5021037;28;20053;-82
2023/05/11 03:33:33;;;;;;;6.13;3.17;;;;;;;-142.57;100.00;115900.28;5019496;28;20106;-82
2023/05/11 03:36:01;;;;;;;4.22;3.30;;;;;;;-142.57;100.00;115900.28;5031942;28;20033;-82
2023/05/11 03:38:29;;;;;;;7.05;3.60;;;;;;;-142.57;100.00;115900.28;5038306;28;20038;-82
2023/05/11 03:40:57;;;;;;;3.60;2.88;;;;;;;-142.57;100.00;115900.28;5014982;28;20034;-83
2023/05/11 03:43:25;;;;;;;6.30;3.03;;;;;;;-142.57;100.00;115900.28;5027952;28;20034;-85
2023/05/11 03:45:54;;;;;;;4.53;2.83;;;;;;;-142.57;100.00;115900.28;5018181;28;20030;-83
2023/05/11 03:48:21;;;;;;;7.22;3.05;;;;;;;-142.57;100.00;115900.28;5015526;28;20069;-84
2023/05/11 03:50:48;;;;;;;8.10;3.08;;;;;;;-142.57;100.00;115900.28;4999130;28;20110;-83
2023/05/11 03:53:15;;;;;;;4.88;2.90;;;;;;;-142.57;100.00;115900.28;5014306;28;20030;-82
2023/05/11 03:55:41;;;;;;;5.57;2.80;;;;;;;-142.57;100.00;115900.28;4998856;28;20046;-85
2023/05/11 03:58:10;;;;;;;7.88;2.83;;;;;;;-142.57;100.00;115900.28;4999541;28;20041;-82
2023/05/11 04:00:39;;;;;;;9.27;2.75;;;;;;;-142.57;100.00;115900.28;5000080;28;20061;-83
2023/05/11 04:03:06;;;;;;;4.55;2.95;;;;;;;-142.57;100.00;115900.28;5001802;28;20058;-80
2023/05/11 04:05:32;;;;;;;6.75;3.08;;;;;;;-142.57;100.00;115900.28;5017626;28;20034;-81
2023/05/11 04:08:01;;;;;;;5.70;2.88;;;;;;;-142.57;100.00;115900.28;5015616;28;20034;-83
2023/05/11 04:10:27;;;;;;;6.68;3.00;;;;;;;-142.57;100.00;115900.28;4996268;28;20038;-85
2023/05/11 04:12:53;;;;;;;6.38;3.08;;;;;;;-142.57;100.00;115900.28;4997445;28;20214;-81
2023/05/11 04:15:19;;;;;;;10.90;3.15;;;;;;;-142.57;100.00;115900.28;5013787;28;20031;-83
2023/05/11 04:17:44;;;;;;;8.23;2.80;;;;;;;-142.57;100.00;115900.28;5016222;28;20033;-83
2023/05/11 04:20:10;;;;;;;5.82;2.90;;;;;;;-142.57;100.00;115900.28;5019646;28;20121;-83
2023/05/11 04:22:35;;;;;;;5.68;2.67;;;;;;;-142.57;100.00;115900.28;5009601;28;20042;-83
2023/05/11 04:25:02;;;;;;;7.88;2.80;;;;;;;-142.57;100.00;115900.28;4996395;28;20514;-84
2023/05/11 04:27:27;;;;;;;3.50;2.60;;;;;;;-142.57;100.00;115900.28;5012869;28;20030;-81
2023/05/11 04:29:53;;;;;;;4.85;2.88;;;;;;;-142.57;100.00;115900.28;4998271;28;20049;-83
2023/05/11 04:32:18;;;;;;;7.53;3.10;;;;;;;-142.57;100.00;115900.28;5012348;28;20030;-83
2023/05/11 04:34:44;;;;;;;4.72;3.25;;;;;;;-142.57;100.00;115900.28;4997648;28;20035;-85
2023/05/11 04:37:09;;;;;;;5.75;3.67;;;;;;;-142.57;100.00;115900.28;4999858;28;20030;-86
2023/05/11 04:39:37;;;;;;;6.47;3.38;;;;;;;-142.57;100.00;115900.28;5002232;28;20042;-84
2023/05/11 04:42:02;;;;;;;9.88;2.90;;;;;;;-142.57;100.00;115900.28;5015090;28;20491;-83
2023/05/11 04:44:28;;;;;;;13.85;3.20;;;;;;;-142.57;100.00;115900.28;5012969;28;20481;-84
2023/05/11 04:46:55;;;;;;;3.95;2.55;;;;;;;-142.57;100.00;115900.28;5017405;28;20042;-85
2023/05/11 04:49:25;;;;;;;10.52;2.90;;;;;;;-142.57;100.00;115900.28;5000787;28;20496;-86
2023/05/11 04:51:57;;;;;;;5.28;3.00;;;;;;;-142.57;100.00;115900.28;4969460;28;20457;-87
2023/05/11 04:54:26;;;;;;;6.93;3.33;;;;;;;-142.57;100.00;115900.28;5001176;28;20099;-86
2023/05/11 04:56:51;;;;;;;8.68;3.42;;;;;;;-142.57;100.00;115900.28;4996249;28;20042;-86
2023/05/11 04:59:18;;;;;;;15.45;7.75;;;;;;;-142.57;100.00;115900.28;4996793;28;20062;-85
2023/05/11 05:01:43;;;;;;;7.00;4.50;;;;;;;-142.57;100.00;115900.28;5001033;28;20068;-87
2023/05/11 05:04:09;;;;;;;6.10;3.08;;;;;;;-142.57;100.00;115900.28;5016969;28;20066;-84
2023/05/11 05:06:37;;;;;;;4.05;3.13;;;;;;;-142.57;100.00;115900.28;5014761;28;20034;-83
2023/05/11 05:09:02;;;;;;;13.40;4.93;;;;;;;-142.57;100.00;115900.28;4982139;28;20048;-85
2023/05/11 05:11:28;;;;;;;7.18;3.65;;;;;;;-142.57;100.00;115900.28;4998918;28;20050;-84
2023/05/11 05:13:54;;;;;;;6.75;3.58;;;;;;;-142.57;100.00;115900.28;5017315;28;20017;-85
2023/05/11 05:16:20;;;;;;;12.18;4.20;;;;;;;-142.57;100.00;115900.28;5004106;28;20053;-86
2023/05/11 05:18:45;;;;;;;9.32;3.67;;;;;;;-142.57;100.00;115900.28;5004945;28;20102;-86
2023/05/11 05:21:11;;;;;;;6.65;3.70;;;;;;;-142.57;100.00;115900.28;5001103;28;20234;-86
2023/05/11 05:23:36;;;;;;;9.32;4.35;;;;;;;-142.57;100.00;115900.28;5018494;28;20044;-86
2023/05/11 05:26:02;;;;;;;9.27;4.00;;;;;;;-142.57;100.00;115900.28;5002140;28;20066;-85
2023/05/11 05:28:29;;;;;;;7.70;4.32;;;;;;;-142.57;100.00;115900.28;5018402;28;20030;-85
2023/05/11 05:30:54;;;;;;;11.48;4.63;;;;;;;-142.57;100.00;115900.28;5007043;28;20069;-84
2023/05/11 05:33:20;;;;;;;14.20;4.07;;;;;;;-142.57;100.00;115900.28;5016977;28;20037;-85
2023/05/11 05:35:46;;;;;;;19.90;5.32;;;;;;;-142.57;100.00;115900.28;5014726;28;20158;-87
2023/05/11 05:38:13;;;;;;;9.27;4.35;;;;;;;-142.57;100.00;115900.28;4996647;28;20033;-86
2023/05/11 05:40:39;;;;;;;10.90;4.60;;;;;;;-142.57;100.00;115900.28;5016919;28;20031;-84
2023/05/11 05:43:06;;;;;;;17.83;4.88;;;;;;;-142.57;100.00;115900.28;5018829;28;20117;-88
2023/05/11 05:45:31;;;;;;;22.13;4.57;;;;;;;-142.57;100.00;115900.28;5016962;28;20030;-87
2023/05/11 05:48:00;;;;;;;15.32;4.63;;;;;;;-142.57;100.00;115900.28;5004091;28;20102;-88
2023/05/11 05:50:29;;;;;;;8.40;4.05;;;;;;;-142.57;100.00;115900.28;5007430;28;20037;-87
2023/05/11 05:53:08;;;;;;;9.43;4.10;;;;;;;-142.57;100.00;115900.28;5007195;28;20487;-90
2023/05/11 05:55:35;;;;;;;10.63;4.35;;;;;;;-142.57;100.00;115900.28;5002672;28;20037;-87
2023/05/11 05:58:03;;;;;;;10.68;4.07;;;;;;;-142.57;100.00;115900.28;5003805;28;20042;-88
2023/05/11 06:00:30;;;;;;;11.05;4.82;;;;;;;-142.57;100.00;115900.28;5012394;28;20040;-85
2023/05/11 06:03:02;;;;;;;7.22;4.13;;;;;;;-142.57;100.00;115900.28;5011164;28;20049;-88
2023/05/11 06:05:28;;;;;;;15.32;4.25;;;;;;;-142.57;100.00;115900.28;4998842;28;20119;-84
2023/05/11 06:07:53;;;;;;;9.05;4.45;;;;;;;-142.57;100.00;115900.28;5006044;28;20081;-90
2023/05/11 06:10:19;;;;;;;26.05;11.75;;;;;;;-142.57;100.00;115900.28;4999298;28;20041;-88
2023/05/11 06:12:46;;;;;;;10.65;4.38;;;;;;;-142.57;100.00;115900.28;4990158;28;20030;-88
2023/05/11 06:15:12;;;;;;;8.38;4.13;;;;;;;-142.57;100.00;115900.28;5019272;28;20525;-88
2023/05/11 06:17:41;;;;;;;9.90;3.97;;;;;;;-142.57;100.00;115900.28;5027719;28;20042;-90
2023/05/11 06:20:10;;;;;;;9.02;3.65;;;;;;;-142.57;100.00;115900.28;4989770;28;20038;-89
2023/05/11 06:22:36;;;;;;;7.82;3.33;;;;;;;-142.57;100.00;115900.28;5006655;28;20421;-86
2023/05/11 06:25:04;;;;;;;9.45;3.25;;;;;;;-142.57;100.00;115900.28;5003106;28;20165;-88
2023/05/11 06:27:29;;;;;;;7.95;3.35;;;;;;;-142.57;100.00;115900.28;4997286;28;20058;-86
2023/05/11 06:29:59;;;;;;;11.77;3.55;;;;;;;-142.57;100.00;115900.28;4999983;28;20027;-87
2023/05/11 06:32:29;;;;;;;8.32;3.05;;;;;;;-142.57;100.00;115900.28;5009670;28;20042;-85
2023/05/11 06:34:55;;;;;;;15.93;3.70;;;;;;;-142.57;100.00;115900.28;4981773;28;20030;-85
2023/05/11 06:37:22;;;;;;;4.45;2.67;;;;;;;-142.57;100.00;115900.28;5001010;28;20388;-87
2023/05/11 06:39:50;;;;;;;7.38;3.05;;;;;;;-142.57;100.00;115900.28;4951472;28;20365;-88
2023/05/11 06:42:15;;;;;;;5.93;2.92;;;;;;;-142.57;100.00;115900.28;5002554;28;20064;-89
2023/05/11 06:44:41;;;;;;;9.02;3.40;;;;;;;-142.57;100.00;115900.28;5004102;28;20058;-86
2023/05/11 06:47:07;;;;;;;15.77;3.65;;;;;;;-142.57;100.00;115900.28;5012320;28;20106;-81
2023/05/11 06:49:33;;;;;;;7.53;2.97;;;;;;;-142.57;100.00;115900.28;4998157;28;20384;-84
2023/05/11 06:51:58;;;;;;;6.05;2.40;;;;;;;-142.57;100.00;115900.28;5011865;28;20034;-84
2023/05/11 06:54:24;;;;;;;6.50;2.90;;;;;;;-142.57;100.00;115900.28;4996362;28;20034;-84
2023/05/11 06:56:49;;;;;;;11.60;3.00;;;;;;;-142.57;100.00;115900.28;4994944;28;20396;-83
2023/05/11 06:59:16;;;;;;;10.48;2.90;;;;;;;-142.57;100.00;115900.28;5001233;28;20369;-82
2023/05/11 07:01:42;;;;;;;7.80;2.65;;;;;;;-142.57;100.00;115900.28;5012197;28;20162;-84
2023/05/11 07:04:07;;;;;;;4.25;2.50;;;;;;;-142.57;100.00;115900.28;5032647;28;20057;-84
2023/05/11 07:06:33;;;;;;;11.45;2.60;;;;;;;-142.57;100.00;115900.28;5018059;28;20026;-83
2023/05/11 07:08:58;;;;;;;4.82;2.30;;;;;;;-142.57;100.00;115900.28;5009437;28;20054;-82
2023/05/11 07:11:24;;;;;;;10.68;3.50;;;;;;;-142.57;100.00;115900.28;5001217;28;20441;-83
2023/05/11 07:13:50;;;;;;;4.45;2.70;;;;;;;-142.57;100.00;115900.28;4994915;28;20093;-81
2023/05/11 07:16:16;;;;;;;11.35;3.10;;;;;;;-142.57;100.00;115900.28;4994241;28;20042;-82
2023/05/11 07:18:41;;;;;;;6.32;3.00;;;;;;;-142.57;100.00;115900.28;4995870;28;20395;-82
2023/05/11 07:21:07;;;;;;;8.13;3.40;;;;;;;-142.57;100.00;115900.28;4995967;28;20045;-82
2023/05/11 07:23:33;;;;;;;5.60;3.25;;;;;;;-142.57;100.00;115900.28;4997190;28;20398;-87
2023/05/11 07:25:58;;;;;;;6.88;3.17;;;;;;;-142.57;100.00;115900.28;4996299;28;20061;-83
2023/05/11 07:28:24;;;;;;;7.47;3.15;;;;;;;-142.57;100.00;115900.28;4997222;28;20069;-84
2023/05/11 07:30:52;;;;;;;8.85;3.63;;;;;;;-142.57;100.00;115900.28;4990837;28;20042;-85
2023/05/11 07:33:17;;;;;;;8.40;3.22;;;;;;;-142.57;100.00;115900.28;4994368;28;20077;-83
2023/05/11 07:35:46;;;;;;;5.45;2.95;;;;;;;-142.57;100.00;115900.28;4996638;28;20030;-82
2023/05/11 07:38:12;;;;;;;7.10;3.15;;;;;;;-142.57;100.00;115900.28;4997782;28;20118;-82
2023/05/11 07:40:38;;;;;;;8.48;2.90;;;;;;;-142.57;100.00;115900.28;4998921;28;20053;-84
2023/05/11 07:43:03;;;;;;;5.95;2.53;;;;;;;-142.57;100.00;115900.28;5001124;28;20043;-83
2023/05/11 07:45:33;;;;;;;9.70;2.55;;;;;;;-142.57;100.00;115900.28;5006261;28;20030;-84
2023/05/11 07:47:59;;;;;;;6.20;2.65;;;;;;;-142.57;100.00;115900.28;5012982;28;20476;-84
2023/05/11 07:50:25;;;;;;;10.38;2.30;;;;;;;-142.57;100.00;115900.28;5015033;28;20046;-88
2023/05/11 07:52:53;;;;;;;2.72;1.88;;;;;;;-142.57;100.00;115900.28;5006151;28;20033;-84
2023/05/11 07:55:25;;;;;;;6.22;2.33;;;;;;;-142.57;100.00;115900.28;4998144;28;20354;-83
2023/05/11 07:57:52;;;;;;;4.20;2.65;;;;;;;-142.57;100.00;115900.28;5009847;28;20022;-84
2023/05/11 08:00:21;;;;;;;3.20;2.72;;;;;;;-142.57;100.00;115900.28;5002856;28;20062;-83
2023/05/11 08:02:50;;;;;;;8.50;2.45;;;;;;;-142.57;100.00;115900.28;4999927;28;20039;-86
2023/05/11 08:05:18;;;;;;;5.00;2.70;;;;;;;-142.57;100.00;115900.28;5005456;28;20369;-87
2023/05/11 08:07:45;;;;;;;3.10;2.50;;;;;;;-142.57;100.00;115900.28;5001531;28;20086;-82
2023/05/11 08:10:11;;;;;;;6.40;2.38;;;;;;;-142.57;100.00;115900.28;4997968;28;20138;-83
2023/05/11 08:12:36;;;;;;;3.10;2.33;;;;;;;-142.57;100.00;115900.28;4993631;28;20502;-81
2023/05/11 08:15:03;;;;;;;4.53;2.20;;;;;;;-142.57;100.00;115900.28;5003429;28;20038;-82
2023/05/11 08:17:29;;;;;;;3.63;2.33;;;;;;;-142.57;100.00;115900.28;5009066;28;20125;-83
2023/05/11 08:19:55;;;;;;;7.60;2.13;;;;;;;-142.57;100.00;115900.28;5000204;28;20077;-83
2023/05/11 08:22:21;;;;;;;3.88;2.33;;;;;;;-142.57;100.00;115900.28;5004686;28;20034;-82
2023/05/11 08:24:47;;;;;;;9.82;2.40;;;;;;;-142.57;100.00;115900.28;5010190;28;20031;-83
2023/05/11 08:27:14;;;;;;;9.20;2.08;;;;;;;-142.57;100.00;115900.28;5010737;28;20125;-82
2023/05/11 08:29:40;;;;;;;4.93;2.10;;;;;;;-142.57;100.00;115900.28;4999266;28;20034;-84
2023/05/11 08:32:05;;;;;;;7.47;2.08;;;;;;;-142.57;100.00;115900.28;4998042;28;20053;-82
2023/05/11 08:34:31;;;;;;;2.80;1.80;;;;;;;-142.57;100.00;115900.28;5012582;28;20054;-81
2023/05/11 08:37:00;;;;;;;3.83;1.67;;;;;;;-142.57;100.00;115900.28;4997653;28;20034;-83
2023/05/11 08:39:26;;;;;;;5.53;1.70;;;;;;;-142.57;100.00;115900.28;4995911;28;20404;-85
2023/05/11 08:41:52;;;;;;;2.50;1.65;;;;;;;-142.57;100.00;115900.28;4996724;28;20519;-84
2023/05/11 08:44:19;;;;;;;14.88;2.28;;;;;;;-142.57;100.00;115900.28;4997558;28;20022;-82
2023/05/11 08:46:47;;;;;;;2.40;1.60;;;;;;;-142.57;100.00;115900.28;4996839;28;20041;-81
2023/05/11 08:49:13;;;;;;;6.00;1.70;;;;;;;-142.57;100.00;115900.28;4995018;28;20042;-84
2023/05/11 08:51:39;;;;;;;2.53;1.40;;;;;;;-142.57;100.00;115900.28;5011353;28;20038;-82
2023/05/11 08:54:06;;;;;;;7.38;1.40;;;;;;;-142.57;100.00;115900.28;4995280;28;20042;-82
2023/05/11 08:56:33;;;;;;;2.58;1.40;;;;;;;-142.57;100.00;115900.28;4994771;28;20037;-83
2023/05/11 08:58:59;;;;;;;5.97;1.50;;;;;;;-142.57;100.00;115900.28;4997960;28;20030;-84
2023/05/11 09:01:28;;;;;;;9.15;2.00;;;;;;;-142.57;100.00;115900.28;4998525;28;20140;-83
2023/05/11 09:03:57;;;;;;;2.92;2.10;;;;;;;-142.57;100.00;115900.28;4995725;28;20492;-81
2023/05/11 09:06:25;;;;;;;5.32;1.98;;;;;;;-142.57;100.00;115900.28;4995472;28;20041;-81
2023/05/11 09:08:52;;;;;;;6.78;2.20;;;;;;;-142.57;100.00;115900.28;4987432;28;20041;-82
2023/05/11 09:11:17;;;;;;;6.70;2.40;;;;;;;-142.57;100.00;115900.28;4991155;28;20034;-83
2023/05/11 09:13:43;;;;;;;7.57;2.22;;;;;;;-142.57;100.00;115900.28;4997163;28;20030;-82
2023/05/11 09:16:09;;;;;;;6.78;2.25;;;;;;;-142.57;100.00;115900.28;5011721;28;20043;-81
2023/05/11 09:18:34;;;;;;;7.43;2.30;;;;;;;-142.57;100.00;115900.28;4996024;28;20114;-84
2023/05/11 09:21:03;;;;;;;5.20;2.20;;;;;;;-142.57;100.00;115900.28;4995436;28;20042;-83
2023/05/11 09:23:30;;;;;;;4.45;1.60;;;;;;;-142.57;100.00;115900.28;4996117;28;20419;-82
2023/05/11 09:25:56;;;;;;;2.40;1.80;;;;;;;-142.57;100.00;115900.28;4995377;28;20057;-84
2023/05/11 09:28:25;;;;;;;3.47;2.17;;;;;;;-142.57;100.00;115900.28;4995933;28;20442;-82
2023/05/11 09:30:52;;;;;;;6.35;1.80;;;;;;;-142.57;100.00;115900.28;4995554;28;20121;-83
2023/05/11 09:33:24;;;;;;;2.65;1.90;;;;;;;-142.57;100.00;115900.28;4996249;28;20058;-82
2023/05/11 09:35:51;;;;;;;10.82;2.38;;;;;;;-142.57;100.00;115900.28;5002681;28;20117;-84
2023/05/11 09:38:26;;;;;;;2.85;1.75;;;;;;;-142.57;100.00;115900.28;5000320;28;20034;-83
2023/05/11 09:40:54;;;;;;;3.42;1.83;;;;;;;-142.57;100.00;115900.28;4997297;28;20547;-82
2023/05/11 09:43:27;;;;;;;4.43;1.83;;;;;;;-142.57;100.00;115900.28;5000262;28;20038;-82
2023/05/11 09:46:00;;;;;;;4.07;2.15;;;;;;;-142.57;100.00;115900.28;4998285;28;20065;-82
2023/05/11 09:48:34;;;;;;;2.95;1.80;;;;;;;-142.57;100.00;115900.28;4997396;28;20066;-84
2023/05/11 09:51:04;;;;;;;3.15;1.98;;;;;;;-142.57;100.00;115900.28;5000273;28;20038;-82
2023/05/11 09:53:37;;;;;;;2.33;1.63;;;;;;;-142.57;100.00;115900.28;5011901;28;20038;-81
2023/05/11 09:56:03;;;;;;;2.03;1.67;;;;;;;-142.57;100.00;115900.28;5018288;28;20030;-82
2023/05/11 09:58:53;;;;;;;4.20;2.22;;;;;;;-142.57;100.00;115900.28;5017622;28;20095;-81
2023/05/11 10:01:33;;;;;;;6.78;2.65;;;;;;;-142.57;100.00;115900.28;5001213;28;20096;-82
2023/05/11 10:04:00;;;;;;;4.35;2.33;;;;;;;-142.57;100.00;115900.28;4998039;28;20062;-80
2023/05/11 10:06:27;;;;;;;4.53;2.28;;;;;;;-142.57;100.00;115900.28;4996642;28;20066;-81
2023/05/11 10:08:53;;;;;;;6.70;3.17;;;;;;;-142.57;100.00;115900.28;4996049;28;20042;-81
2023/05/11 10:11:21;;;;;;;6.00;3.50;;;;;;;-142.57;100.00;115900.28;4994814;28;20073;-83
2023/05/11 10:13:48;;;;;;;4.65;2.63;;;;;;;-142.57;100.00;115900.28;4995620;28;20129;-84
2023/05/11 10:16:15;;;;;;;3.08;2.33;;;;;;;-142.57;100.00;115900.28;4994844;28;20081;-81
2023/05/11 10:18:42;;;;;;;5.78;2.90;;;;;;;-142.57;100.00;115900.28;4993762;28;20085;-83
2023/05/11 10:21:10;;;;;;;5.45;3.40;;;;;;;-142.57;100.00;115900.28;4994602;28;20074;-84
2023/05/11 10:23:39;;;;;;;9.52;3.90;;;;;;;-142.57;100.00;115900.28;4995313;28;20049;-81
2023/05/11 10:26:05;;;;;;;4.70;3.10;;;;;;;-142.57;100.00;115900.28;4994848;28;20109;-81
2023/05/11 10:28:31;;;;;;;7.07;3.72;;;;;;;-142.57;100.00;115900.28;4993754;28;20084;-84
2023/05/11 10:30:58;;;;;;;6.40;3.30;;;;;;;-142.57;100.00;115900.28;4993004;28;20035;-82
2023/05/11 10:33:24;;;;;;;8.55;3.55;;;;;;;-142.57;100.00;115900.28;4974353;28;20043;-82
2023/05/11 10:35:50;;;;;;;5.45;3.28;;;;;;;-142.57;100.00;115900.28;4988968;28;20106;-81
2023/05/11 10:38:16;;;;;;;7.20;3.50;;;;;;;-142.57;100.00;115900.28;4983740;28;20109;-82
2023/05/11 10:40:44;;;;;;;6.03;3.65;;;;;;;-142.57;100.00;115900.28;4995643;28;20046;-85
2023/05/11 10:43:37;;;;;;;5.35;3.50;;;;;;;-142.57;100.00;115900.28;5010672;28;20026;-84
2023/05/11 10:46:41;;;;;;;6.25;3.65;;;;;;;-142.57;100.00;115900.28;4994607;28;20467;-81
2023/05/11 10:49:17;;;;;;;6.03;3.42;;;;;;;-142.57;100.00;115900.28;4994262;28;20145;-83
2023/05/11 10:52:15;;;;;;;8.30;4.50;;;;;;;-142.57;100.00;115900.28;5005320;28;20396;-81
2023/05/11 10:54:46;;;;;;;7.38;4.20;;;;;;;-142.57;100.00;115900.28;4937413;29;20067;-84
2023/05/11 10:57:28;;;;;;;6.15;3.53;;;;;;;-142.57;100.00;115900.28;4938248;29;20489;-82
2023/05/11 11:00:29;;;;;;;9.82;6.10;;;;;;;-142.57;100.00;115900.28;4935818;29;20052;-82
2023/05/11 11:03:08;;;;;;;9.63;5.40;;;;;;;-142.57;100.00;115900.28;4935565;29;20098;-85
2023/05/11 11:05:36;;;;;;;10.43;6.22;;;;;;;-142.57;100.00;115900.28;4975023;28;20046;-85